Time;durP1;ratioP1;P1;durP2;ratioP2;P2;SDS_P1;SDS_P2;PMS_P1;PMS_P2;Temp;Humidity;BMP_temperature;BMP_pressure;BME280_temperature;BME280_humidity;BME280_pressure;Samples;Min_cycle;Max_cycle;Signal;HPM_P1;HPM_P2
2023/08/16 00:07:13;;;;;;;6.00;3.35;;;29.60;23.30;;;;;;20997408;28;20044;-58
2023/08/16 00:17:14;;;;;;;4.65;3.58;;;29.40;22.70;;;;;;20995484;28;20040;-57
2023/08/16 00:27:14;;;;;;;6.07;3.80;;;29.30;23.00;;;;;;20995884;28;20391;-59
2023/08/16 00:37:15;;;;;;;10.23;4.43;;;29.10;22.70;;;;;;20995772;28;20099;-58
2023/08/16 00:47:16;;;;;;;6.93;4.00;;;29.20;23.20;;;;;;20994817;28;20058;-59
2023/08/16 00:57:17;;;;;;;6.97;4.55;;;29.10;23.20;;;;;;20994563;28;20090;-59
2023/08/16 01:07:18;;;;;;;7.68;4.30;;;29.00;23.30;;;;;;20994447;28;20044;-57
2023/08/16 01:17:23;;;;;;;7.40;4.65;;;28.90;23.40;;;;;;20992449;28;20045;-59
2023/08/16 01:27:24;;;;;;;6.38;4.32;;;28.80;23.50;;;;;;20993430;28;20060;-59
2023/08/16 01:37:25;;;;;;;8.80;4.28;;;28.80;23.70;;;;;;20993273;28;20047;-58
2023/08/16 01:47:28;;;;;;;10.85;4.75;;;28.60;24.10;;;;;;21007688;28;20123;-58
2023/08/16 01:57:29;;;;;;;6.65;4.75;;;28.30;24.20;;;;;;21005304;28;20080;-57
2023/08/16 02:07:30;;;;;;;8.52;4.53;;;28.20;24.50;;;;;;21004826;28;20067;-58
2023/08/16 02:17:31;;;;;;;;;;;27.80;24.70;;;;;;21004090;28;20390;-59
2023/08/16 02:27:35;;;;;;;8.18;4.85;;;27.70;24.80;;;;;;21003845;28;19967;-58
2023/08/16 02:37:37;;;;;;;9.43;4.05;;;27.70;25.10;;;;;;21003472;28;20048;-58
2023/08/16 02:47:38;;;;;;;7.72;3.92;;;27.60;25.10;;;;;;21002761;28;20486;-58
2023/08/16 02:57:38;;;;;;;11.27;4.13;;;27.40;25.00;;;;;;21001770;28;20161;-59
2023/08/16 03:07:39;;;;;;;6.97;4.37;;;27.30;25.30;;;;;;21001176;28;20047;-58
2023/08/16 03:17:40;;;;;;;7.50;4.28;;;27.20;25.10;;;;;;20998748;28;20044;-58
2023/08/16 03:27:41;;;;;;;5.57;3.83;;;27.10;25.40;;;;;;20998605;28;20056;-59
2023/08/16 03:37:42;;;;;;;7.97;4.80;;;27.10;25.30;;;;;;20998676;28;20458;-58
2023/08/16 03:47:43;;;;;;;6.63;3.80;;;26.80;25.80;;;;;;20998586;28;20051;-57
2023/08/16 03:57:44;;;;;;;9.55;4.13;;;26.60;26.10;;;;;;20997426;28;20048;-58
2023/08/16 04:07:45;;;;;;;7.37;4.60;;;26.50;26.40;;;;;;20996496;28;20090;-58
2023/08/16 04:17:45;;;;;;;7.27;4.23;;;26.30;26.50;;;;;;20996427;28;20093;-58
2023/08/16 04:27:46;;;;;;;6.23;4.00;;;26.10;28.80;;;;;;20995485;28;20162;-58
2023/08/16 04:37:47;;;;;;;7.30;4.13;;;25.70;30.20;;;;;;20996320;28;20171;-58
2023/08/16 04:47:47;;;;;;;11.10;4.27;;;25.70;30.30;;;;;;20995666;28;20088;-58
2023/08/16 04:57:49;;;;;;;8.33;3.87;;;25.40;30.40;;;;;;20995286;28;20045;-57
2023/08/16 05:07:49;;;;;;;5.10;3.60;;;25.20;30.10;;;;;;20995958;28;20044;-58
2023/08/16 05:17:50;;;;;;;5.03;3.57;;;24.70;30.70;;;;;;21004393;28;20174;-58
2023/08/16 05:27:51;;;;;;;6.27;4.00;;;24.50;31.30;;;;;;21008986;28;20049;-58
2023/08/16 05:37:53;;;;;;;11.43;4.43;;;24.10;32.10;;;;;;21007083;28;20061;-58
2023/08/16 05:47:54;;;;;;;11.57;4.30;;;24.10;32.00;;;;;;21007756;28;20110;-58
2023/08/16 05:57:55;;;;;;;6.30;3.90;;;24.10;32.10;;;;;;21006673;28;20501;-59
2023/08/16 06:07:57;;;;;;;8.02;4.53;;;24.10;32.30;;;;;;21005922;28;20048;-57
2023/08/16 06:17:58;;;;;;;6.83;4.60;;;24.00;32.10;;;;;;21005594;28;20044;-58
2023/08/16 06:27:58;;;;;;;13.90;3.85;;;23.90;32.60;;;;;;21002708;28;20082;-57
2023/08/16 06:38:01;;;;;;;12.88;4.35;;;23.90;32.50;;;;;;21003654;28;20044;-59
2023/08/16 06:48:03;;;;;;;6.90;3.95;;;24.20;32.40;;;;;;21003028;28;20061;-58
2023/08/16 06:58:07;;;;;;;11.20;4.68;;;24.70;31.00;;;;;;21002240;28;20080;-57
2023/08/16 07:08:07;;;;;;;13.80;5.78;;;25.10;30.80;;;;;;20999987;28;20123;-58
2023/08/16 07:18:08;;;;;;;13.50;4.40;;;25.70;34.90;;;;;;21001318;28;20481;-58
2023/08/16 07:28:09;;;;;;;10.43;4.30;;;26.30;37.50;;;;;;20999192;28;20060;-58
2023/08/16 07:38:10;;;;;;;10.80;4.07;;;26.70;36.70;;;;;;20996626;28;20480;-58
2023/08/16 07:48:10;;;;;;;11.87;4.40;;;27.20;39.70;;;;;;20998081;28;20502;-58
2023/08/16 07:58:13;;;;;;;13.57;5.10;;;27.50;39.90;;;;;;20995985;28;20048;-58
2023/08/16 08:08:14;;;;;;;14.80;4.60;;;27.80;37.70;;;;;;20995737;28;20048;-58
2023/08/16 08:18:15;;;;;;;15.20;6.20;;;28.10;37.60;;;;;;20995043;28;20621;-58
2023/08/16 08:28:17;;;;;;;9.67;4.13;;;28.50;40.10;;;;;;20995975;28;20052;-59
2023/08/16 08:38:18;;;;;;;18.30;8.43;;;28.40;41.00;;;;;;20995853;28;20076;-58
2023/08/16 08:48:19;;;;;;;;;;;28.60;40.50;;;;;;21000961;28;20052;-57
2023/08/16 08:58:21;;;;;;;17.73;5.47;;;28.60;39.60;;;;;;21012279;28;19975;-58
2023/08/16 09:08:23;;;;;;;12.13;4.22;;;28.70;40.50;;;;;;21011482;28;20317;-57
2023/08/16 09:18:27;;;;;;;13.00;4.22;;;29.10;39.50;;;;;;21010387;28;20051;-57
2023/08/16 09:28:30;;;;;;;9.10;4.10;;;29.10;38.70;;;;;;21008319;28;20568;-57
2023/08/16 09:38:34;;;;;;;18.77;4.70;;;29.50;38.30;;;;;;21007907;28;20040;-57
2023/08/16 09:48:35;;;;;;;12.88;5.32;;;29.80;37.90;;;;;;21007542;28;20048;-59
2023/08/16 09:58:36;;;;;;;11.32;4.80;;;29.70;38.80;;;;;;21005561;28;20063;-59
2023/08/16 10:08:37;;;;;;;8.25;4.55;;;30.10;38.10;;;;;;21005816;28;20040;-58
2023/08/16 10:18:42;;;;;;;8.40;4.10;;;30.30;36.50;;;;;;21003947;28;20174;-58
2023/08/16 10:28:55;;;;;;;13.27;4.30;;;30.50;35.40;;;;;;21002995;28;20071;-57
2023/08/16 10:38:56;;;;;;;11.27;4.60;;;30.60;31.80;;;;;;21003990;28;20041;-58
2023/08/16 10:48:59;;;;;;;8.50;4.10;;;30.70;29.70;;;;;;21003089;28;20098;-58
2023/08/16 10:59:06;;;;;;;8.07;4.53;;;30.90;29.80;;;;;;21000879;28;20056;-58
2023/08/16 11:09:07;;;;;;;9.45;3.90;;;31.20;27.90;;;;;;20999396;28;20051;-58
2023/08/16 11:19:10;;;;;;;7.72;4.20;;;31.50;28.40;;;;;;20998889;28;20037;-58
2023/08/16 11:29:11;;;;;;;6.18;3.55;;;31.60;27.30;;;;;;20999366;28;20559;-57
2023/08/16 11:39:11;;;;;;;8.63;3.60;;;31.80;24.60;;;;;;20999182;28;20049;-58
2023/08/16 11:49:12;;;;;;;5.90;3.28;;;32.10;23.00;;;;;;20997159;28;20051;-59
2023/08/16 11:59:31;;;;;;;6.43;3.30;;;32.50;22.60;;;;;;20997550;28;20036;-59
2023/08/16 12:09:38;;;;;;;6.90;3.33;;;32.60;22.50;;;;;;20996768;28;20066;-58
2023/08/16 12:19:39;;;;;;;7.25;3.80;;;33.00;21.50;;;;;;20996994;28;20041;-59
2023/08/16 12:29:40;;;;;;;8.85;4.00;;;33.10;21.50;;;;;;20995335;28;20132;-58
2023/08/16 12:39:41;;;;;;;7.07;2.92;;;33.10;21.30;;;;;;20996002;28;20044;-57
2023/08/16 12:49:42;;;;;;;6.60;2.67;;;33.40;20.70;;;;;;20994352;28;20048;-58
2023/08/16 12:59:45;;;;;;;5.40;3.25;;;33.60;21.10;;;;;;20993640;28;20087;-58
2023/08/16 13:09:46;;;;;;;11.23;3.20;;;33.80;20.80;;;;;;20994788;28;20048;-58
2023/08/16 13:19:47;;;;;;;5.95;3.25;;;33.90;20.40;;;;;;20994139;28;20090;-57
2023/08/16 13:29:48;;;;;;;6.68;3.20;;;34.00;20.90;;;;;;20992709;28;20056;-59
2023/08/16 13:39:48;;;;;;;5.55;2.08;;;34.00;20.40;;;;;;21004580;28;20480;-58
2023/08/16 13:49:49;;;;;;;5.20;4.05;;;34.00;20.90;;;;;;21008442;28;20044;-58
2023/08/16 13:59:50;;;;;;;4.40;2.10;;;34.10;21.40;;;;;;21006744;28;20040;-57
2023/08/16 14:09:52;;;;;;;4.20;2.25;;;34.30;21.50;;;;;;21006480;28;20041;-59
2023/08/16 14:19:53;;;;;;;2.92;2.00;;;34.40;20.70;;;;;;21005914;28;20435;-57
2023/08/16 14:29:54;;;;;;;3.45;2.00;;;34.60;19.80;;;;;;21003205;28;20086;-57
2023/08/16 14:39:55;;;;;;;4.47;2.00;;;34.60;19.80;;;;;;21003914;28;20477;-58
2023/08/16 14:49:56;;;;;;;5.97;2.22;;;34.60;20.40;;;;;;21001581;28;20084;-59
2023/08/16 14:59:57;;;;;;;3.47;1.98;;;34.50;20.80;;;;;;21001960;28;20049;-58
2023/08/16 15:09:58;;;;;;;3.72;1.98;;;34.60;19.10;;;;;;21000142;28;20052;-57
2023/08/16 15:19:59;;;;;;;4.47;3.00;;;34.50;19.60;;;;;;20999069;28;20494;-58
2023/08/16 15:29:59;;;;;;;3.15;1.83;;;34.50;19.70;;;;;;20998679;28;20359;-58
2023/08/16 15:40:00;;;;;;;5.72;2.42;;;34.60;19.80;;;;;;20997919;28;20052;-58
2023/08/16 15:50:01;;;;;;;3.10;2.10;;;34.60;19.60;;;;;;20998992;28;20044;-58
2023/08/16 16:00:04;;;;;;;5.67;1.77;;;34.60;19.30;;;;;;20997572;28;20044;-59
2023/08/16 16:10:04;;;;;;;4.65;2.40;;;34.60;19.60;;;;;;20996019;28;20300;-58
2023/08/16 16:20:06;;;;;;;3.45;1.98;;;34.60;20.50;;;;;;20996776;28;20041;-58
2023/08/16 16:30:07;;;;;;;7.38;1.83;;;34.70;20.30;;;;;;20996173;28;20056;-58
2023/08/16 16:40:08;;;;;;;4.88;2.65;;;34.60;20.40;;;;;;20994540;28;20131;-59
2023/08/16 16:50:09;;;;;;;6.45;2.40;;;34.50;21.00;;;;;;20995331;28;20044;-57
2023/08/16 17:00:11;;;;;;;3.58;2.20;;;34.50;20.90;;;;;;20994796;28;20055;-59
2023/08/16 17:10:11;;;;;;;2.85;2.03;;;34.30;20.80;;;;;;21001766;28;20071;-58
2023/08/16 17:20:12;;;;;;;4.32;2.20;;;34.20;21.00;;;;;;21009010;28;20172;-59
2023/08/16 17:30:13;;;;;;;4.20;2.30;;;34.20;21.30;;;;;;21007825;28;20437;-58
2023/08/16 17:40:14;;;;;;;2.58;2.08;;;34.10;21.10;;;;;;21007106;28;20049;-58
2023/08/16 17:50:14;;;;;;;3.72;2.78;;;34.00;21.00;;;;;;21007392;28;20055;-60
2023/08/16 18:00:16;;;;;;;4.38;2.17;;;33.90;21.30;;;;;;21005205;28;20150;-59
2023/08/16 18:10:16;;;;;;;5.57;2.17;;;33.70;21.10;;;;;;21005998;28;20374;-58
2023/08/16 18:20:17;;;;;;;4.78;2.20;;;33.60;21.00;;;;;;21003335;28;20124;-60
2023/08/16 18:30:18;;;;;;;5.82;2.28;;;33.50;20.90;;;;;;21004069;28;20114;-60
2023/08/16 18:40:19;;;;;;;4.53;2.13;;;33.30;21.40;;;;;;21003202;28;20113;-57
2023/08/16 18:50:20;;;;;;;3.83;2.85;;;33.20;20.90;;;;;;21003040;28;20049;-58
2023/08/16 19:00:20;;;;;;;3.95;2.30;;;33.00;20.90;;;;;;21000188;28;20044;-58
2023/08/16 19:10:23;;;;;;;4.63;2.30;;;32.80;21.40;;;;;;21000248;28;20486;-58
2023/08/16 19:20:26;;;;;;;4.97;3.50;;;32.60;21.70;;;;;;21000333;28;20434;-58
2023/08/16 19:30:26;;;;;;;6.18;2.70;;;32.50;21.80;;;;;;20997726;28;20091;-58
2023/08/16 19:40:28;;;;;;;5.38;3.05;;;32.30;21.90;;;;;;20997524;28;20044;-60
2023/08/16 19:50:30;;;;;;;8.30;4.00;;;32.30;22.40;;;;;;20998273;28;20124;-58
2023/08/16 20:00:31;;;;;;;5.80;3.45;;;32.00;22.80;;;;;;20997395;28;20405;-58
2023/08/16 20:10:33;;;;;;;8.30;3.40;;;31.90;23.30;;;;;;20997649;28;20095;-59
2023/08/16 20:20:33;;;;;;;5.63;3.53;;;31.80;23.80;;;;;;20996122;28;20045;-57
2023/08/16 20:30:34;;;;;;;8.63;3.47;;;31.60;24.20;;;;;;20995903;28;20518;-58
2023/08/16 20:40:35;;;;;;;7.88;3.15;;;31.50;24.40;;;;;;20994895;28;20098;-58
2023/08/16 20:50:37;;;;;;;4.70;3.13;;;31.30;24.40;;;;;;21021692;28;20051;-58
2023/08/16 21:00:38;;;;;;;6.95;3.28;;;31.20;24.40;;;;;;21021752;28;20088;-59
2023/08/16 21:10:39;;;;;;;5.03;2.55;;;31.00;24.40;;;;;;21022855;28;20387;-58
2023/08/16 21:20:40;;;;;;;5.47;2.50;;;30.90;24.50;;;;;;21022052;28;20044;-58
2023/08/16 21:30:41;;;;;;;5.68;2.97;;;30.70;24.40;;;;;;21022125;28;20063;-58
2023/08/16 21:40:42;;;;;;;5.05;3.25;;;30.70;24.50;;;;;;21020657;28;20123;-59
2023/08/16 21:50:42;;;;;;;7.75;3.05;;;30.60;24.60;;;;;;21020356;28;20067;-58
2023/08/16 22:00:45;;;;;;;5.72;3.10;;;30.60;24.60;;;;;;21006833;28;20169;-58
2023/08/16 22:10:45;;;;;;;5.38;2.85;;;30.50;24.70;;;;;;21006417;28;20041;-59
2023/08/16 22:20:46;;;;;;;4.03;2.70;;;30.50;24.60;;;;;;21004173;28;20128;-58
2023/08/16 22:30:47;;;;;;;3.30;2.22;;;30.30;24.90;;;;;;21003502;28;20493;-59
2023/08/16 22:40:48;;;;;;;5.53;3.35;;;30.20;24.60;;;;;;21004515;28;20482;-58
2023/08/16 22:50:49;;;;;;;5.25;3.95;;;30.20;24.40;;;;;;21003033;28;20051;-59
2023/08/16 23:00:49;;;;;;;5.00;2.80;;;30.00;24.80;;;;;;21001912;28;20048;-58
2023/08/16 23:10:50;;;;;;;6.28;3.40;;;29.80;24.40;;;;;;21000586;28;20075;-58
2023/08/16 23:20:51;;;;;;;4.25;2.78;;;29.70;24.60;;;;;;21001452;28;20040;-58
2023/08/16 23:30:52;;;;;;;5.53;2.85;;;29.60;25.20;;;;;;20999393;28;20095;-58
2023/08/16 23:40:52;;;;;;;7.68;4.45;;;29.30;25.90;;;;;;20999988;28;20516;-59
2023/08/16 23:50:53;;;;;;;5.22;3.60;;;29.10;25.90;;;;;;20999204;28;20102;-59
